BAW9261 LEAM-EGLL
Flight info
| Callsign | BAW9261 |
|---|---|
| Flight time | N/A |
| Altitude | 34000 |
| Route | VADAT N860 AMR M143 TOSGA N851 RESTU N860 BEGOX M445 SOPET M985 DIKUT DCT ASDIR DCT OSLAP DCT USKAR DCT MOPAS DCT GIROM DCT AGN DCT SECHE DCT UVELI DCT CNA DCT MANAK DCT EPAPU UM184 EKRAS UT507 REVTU UP87 ROXOG |
| Aircraft | A320/M-SDE3FGHIRWY/LB1 |
Departure
| Time | N/A |
|---|---|
| Airport | Almería Airport (LEAM) |
Arrival
| Time | 2026-05-04 16:00 |
|---|---|
| Airport | London Heathrow Airport (EGLL) |
| Time | Latitude | Longitude | Altitude | Speed | Heading |
|---|---|---|---|---|---|
| 2026-05-04 14:36 | 43.47139 | 0.92013 | 34000 ft | 478 kts | 349° |
| 2026-05-04 14:36 | 43.53846 | 0.91348 | 33924 ft | 487 kts | 348° |
| 2026-05-04 14:37 | 43.60633 | 0.90472 | 33935 ft | 491 kts | 348° |
| 2026-05-04 14:37 | 43.67446 | 0.89647 | 33935 ft | 492 kts | 349° |
| 2026-05-04 14:38 | 43.74308 | 0.88858 | 33934 ft | 499 kts | 349° |
| 2026-05-04 14:38 | 43.81300 | 0.88044 | 33933 ft | 508 kts | 349° |
| 2026-05-04 14:39 | 43.88283 | 0.86837 | 33947 ft | 501 kts | 339° |
| 2026-05-04 14:39 | 43.94681 | 0.83437 | 33936 ft | 490 kts | 328° |
| 2026-05-04 14:40 | 44.03936 | 0.77467 | 33942 ft | 491 kts | 329° |
| 2026-05-04 14:40 | 44.10135 | 0.73458 | 33948 ft | 492 kts | 329° |
| 2026-05-04 14:41 | 44.16344 | 0.69431 | 33948 ft | 492 kts | 329° |
| 2026-05-04 14:42 | 44.28776 | 0.61339 | 33957 ft | 493 kts | 329° |
| 2026-05-04 14:42 | 44.35003 | 0.57278 | 33954 ft | 493 kts | 329° |
| 2026-05-04 14:43 | 44.41216 | 0.53205 | 33960 ft | 493 kts | 329° |
| 2026-05-04 14:43 | 44.47389 | 0.49138 | 33959 ft | 493 kts | 329° |
| 2026-05-04 14:44 | 44.53585 | 0.45028 | 33959 ft | 493 kts | 329° |
| 2026-05-04 14:44 | 44.59781 | 0.40901 | 33952 ft | 493 kts | 329° |
| 2026-05-04 14:45 | 44.65971 | 0.36774 | 33944 ft | 493 kts | 329° |
| 2026-05-04 14:45 | 44.72168 | 0.32642 | 33938 ft | 493 kts | 329° |
| 2026-05-04 14:46 | 44.78360 | 0.28498 | 33937 ft | 492 kts | 329° |
| 2026-05-04 14:46 | 44.84511 | 0.24372 | 33934 ft | 492 kts | 329° |
| 2026-05-04 14:47 | 44.90691 | 0.20211 | 33936 ft | 493 kts | 329° |
| 2026-05-04 14:47 | 44.96882 | 0.16039 | 33935 ft | 493 kts | 329° |
| 2026-05-04 14:48 | 45.03072 | 0.11870 | 33944 ft | 492 kts | 329° |
| 2026-05-04 14:48 | 45.09250 | 0.07688 | 33946 ft | 492 kts | 329° |
| 2026-05-04 14:49 | 45.15423 | 0.03490 | 33947 ft | 491 kts | 329° |
| 2026-05-04 14:49 | 45.21583 | -0.00712 | 33948 ft | 491 kts | 330° |
| 2026-05-04 14:50 | 45.27705 | -0.04890 | 33933 ft | 492 kts | 331° |
| 2026-05-04 14:50 | 45.33890 | -0.09119 | 33928 ft | 493 kts | 331° |
| 2026-05-04 14:51 | 45.40061 | -0.13353 | 33929 ft | 493 kts | 331° |
| 2026-05-04 14:51 | 45.46242 | -0.17609 | 33935 ft | 493 kts | 331° |
| 2026-05-04 14:52 | 45.52431 | -0.21862 | 33951 ft | 494 kts | 331° |
| 2026-05-04 14:52 | 45.58629 | -0.26148 | 33936 ft | 494 kts | 331° |
| 2026-05-04 14:53 | 45.64792 | -0.30476 | 33935 ft | 493 kts | 327° |
| 2026-05-04 14:53 | 45.70313 | -0.36054 | 33945 ft | 489 kts | 318° |
| 2026-05-04 14:54 | 45.75644 | -0.42087 | 33952 ft | 488 kts | 317° |
| 2026-05-04 14:54 | 45.80969 | -0.48132 | 33952 ft | 488 kts | 318° |
| 2026-05-04 14:55 | 45.86302 | -0.54178 | 33950 ft | 489 kts | 318° |
| 2026-05-04 14:55 | 45.91648 | -0.60236 | 33956 ft | 489 kts | 318° |
| 2026-05-04 14:56 | 45.96983 | -0.66307 | 33966 ft | 489 kts | 318° |
| 2026-05-04 14:56 | 46.02316 | -0.72401 | 33964 ft | 490 kts | 318° |
| 2026-05-04 14:57 | 46.07660 | -0.78515 | 33964 ft | 491 kts | 318° |
| 2026-05-04 14:57 | 46.12976 | -0.84608 | 33974 ft | 491 kts | 318° |
| 2026-05-04 14:58 | 46.18348 | -0.90709 | 33976 ft | 493 kts | 322° |
| 2026-05-04 14:58 | 46.24527 | -0.95114 | 33979 ft | 500 kts | 341° |
| 2026-05-04 14:59 | 46.31326 | -0.97335 | 33983 ft | 501 kts | 346° |
| 2026-05-04 15:00 | 46.41557 | -1.00472 | 33981 ft | 501 kts | 346° |
| 2026-05-04 15:00 | 46.48379 | -1.02562 | 33984 ft | 501 kts | 346° |
| 2026-05-04 15:01 | 46.58604 | -1.05737 | 33985 ft | 501 kts | 346° |
| 2026-05-04 15:01 | 46.65378 | -1.07832 | 33987 ft | 501 kts | 346° |
| 2026-05-04 15:02 | 46.72202 | -1.09950 | 33986 ft | 501 kts | 346° |
| 2026-05-04 15:02 | 46.79015 | -1.12082 | 33988 ft | 501 kts | 346° |
| 2026-05-04 15:03 | 46.85836 | -1.14215 | 33989 ft | 501 kts | 346° |
| 2026-05-04 15:03 | 46.92656 | -1.16348 | 33989 ft | 502 kts | 346° |
| 2026-05-04 15:04 | 46.99496 | -1.18485 | 33991 ft | 501 kts | 346° |
| 2026-05-04 15:04 | 47.06317 | -1.20634 | 33991 ft | 501 kts | 346° |
| 2026-05-04 15:05 | 47.13134 | -1.22795 | 33992 ft | 501 kts | 346° |
| 2026-05-04 15:05 | 47.19913 | -1.24936 | 33991 ft | 501 kts | 346° |
| 2026-05-04 15:06 | 47.26727 | -1.27095 | 33991 ft | 501 kts | 346° |
| 2026-05-04 15:07 | 47.36954 | -1.30347 | 33986 ft | 501 kts | 346° |
| 2026-05-04 15:07 | 47.43769 | -1.32518 | 33985 ft | 501 kts | 346° |
| 2026-05-04 15:08 | 47.50579 | -1.34697 | 33990 ft | 500 kts | 346° |
| 2026-05-04 15:08 | 47.53947 | -1.35779 | 33974 ft | 488 kts | 346° |
| 2026-05-04 15:08 | 47.57202 | -1.36827 | 33954 ft | 470 kts | 346° |
| 2026-05-04 15:08 | 47.60347 | -1.37843 | 33756 ft | 458 kts | 346° |
| 2026-05-04 15:09 | 47.63460 | -1.38853 | 33130 ft | 457 kts | 346° |
| 2026-05-04 15:09 | 47.66531 | -1.39843 | 32906 ft | 447 kts | 346° |
| 2026-05-04 15:09 | 47.69526 | -1.40801 | 32881 ft | 435 kts | 347° |
| 2026-05-04 15:10 | 47.75640 | -1.41627 | 33088 ft | 451 kts | 356° |
| 2026-05-04 15:10 | 47.78787 | -1.41860 | 33340 ft | 454 kts | 356° |
| 2026-05-04 15:10 | 47.85127 | -1.42347 | 33837 ft | 459 kts | 356° |
| 2026-05-04 15:11 | 47.88254 | -1.42585 | 33961 ft | 465 kts | 357° |
| 2026-05-04 15:11 | 47.94826 | -1.43075 | 33972 ft | 480 kts | 357° |
| 2026-05-04 15:12 | 48.01598 | -1.43602 | 33972 ft | 491 kts | 357° |
| 2026-05-04 15:12 | 48.08438 | -1.44105 | 33968 ft | 493 kts | 357° |
| 2026-05-04 15:13 | 48.15306 | -1.44578 | 33981 ft | 493 kts | 357° |
| 2026-05-04 15:13 | 48.22166 | -1.45063 | 33981 ft | 493 kts | 357° |
| 2026-05-04 15:14 | 48.28977 | -1.45565 | 33985 ft | 494 kts | 357° |
| 2026-05-04 15:14 | 48.35838 | -1.46064 | 33990 ft | 494 kts | 357° |
| 2026-05-04 15:15 | 48.42699 | -1.46554 | 33993 ft | 494 kts | 357° |
| 2026-05-04 15:15 | 48.49567 | -1.47046 | 34000 ft | 494 kts | 357° |
| 2026-05-04 15:16 | 48.59856 | -1.47796 | 34003 ft | 494 kts | 357° |
| 2026-05-04 15:17 | 48.70154 | -1.48541 | 34010 ft | 493 kts | 357° |
| 2026-05-04 15:17 | 48.79280 | -1.49216 | 34015 ft | 492 kts | 357° |
| 2026-05-04 15:18 | 48.86117 | -1.49735 | 34015 ft | 492 kts | 357° |
| 2026-05-04 15:19 | 48.96272 | -1.51946 | 34011 ft | 492 kts | 348° |
| 2026-05-04 15:19 | 49.06317 | -1.55135 | 34011 ft | 492 kts | 347° |
| 2026-05-04 15:20 | 49.12997 | -1.57323 | 34013 ft | 491 kts | 347° |
| 2026-05-04 15:20 | 49.19688 | -1.59498 | 34009 ft | 491 kts | 347° |
| 2026-05-04 15:21 | 49.26383 | -1.61668 | 34011 ft | 491 kts | 347° |
| 2026-05-04 15:22 | 49.36380 | -1.64921 | 34021 ft | 491 kts | 347° |
| 2026-05-04 15:22 | 49.46393 | -1.68181 | 34021 ft | 490 kts | 347° |
| 2026-05-04 15:23 | 49.53063 | -1.70374 | 34021 ft | 490 kts | 347° |
| 2026-05-04 15:23 | 49.59770 | -1.72272 | 34018 ft | 490 kts | 355° |
| 2026-05-04 15:24 | 49.73189 | -1.71427 | 34009 ft | 473 kts | 3° |
| 2026-05-04 15:25 | 49.79754 | -1.70876 | 34009 ft | 472 kts | 3° |
| 2026-05-04 15:26 | 49.89579 | -1.70058 | 34008 ft | 471 kts | 3° |
| 2026-05-04 15:26 | 49.99401 | -1.69063 | 34009 ft | 471 kts | 9° |
| 2026-05-04 15:27 | 50.08842 | -1.64895 | 34011 ft | 470 kts | 18° |
| 2026-05-04 15:28 | 50.15115 | -1.61857 | 32726 ft | 478 kts | 18° |
| 2026-05-04 15:28 | 50.18327 | -1.60294 | 31457 ft | 489 kts | 18° |
| 2026-05-04 15:28 | 50.24873 | -1.57118 | 29424 ft | 495 kts | 19° |
| 2026-05-04 15:29 | 50.28134 | -1.55522 | 28929 ft | 486 kts | 19° |
| 2026-05-04 15:30 | 50.40776 | -1.49323 | 26297 ft | 469 kts | 19° |
| 2026-05-04 15:30 | 50.50001 | -1.44782 | 24385 ft | 457 kts | 18° |
| 2026-05-04 15:31 | 50.55843 | -1.41156 | 23150 ft | 447 kts | 31° |
| 2026-05-04 15:31 | 50.58554 | -1.38813 | 22564 ft | 442 kts | 30° |
| 2026-05-04 15:32 | 50.66523 | -1.31974 | 20908 ft | 427 kts | 30° |
| 2026-05-04 15:32 | 50.71680 | -1.27527 | 19860 ft | 418 kts | 30° |
| 2026-05-04 15:33 | 50.76732 | -1.23133 | 18814 ft | 411 kts | 31° |
| 2026-05-04 15:34 | 50.83851 | -1.15947 | 17171 ft | 402 kts | 35° |
| 2026-05-04 15:34 | 50.86166 | -1.13476 | 16599 ft | 400 kts | 35° |
| 2026-05-04 15:34 | 50.90766 | -1.08637 | 15461 ft | 394 kts | 34° |
| 2026-05-04 15:35 | 50.95316 | -1.03930 | 14314 ft | 387 kts | 34° |
| 2026-05-04 15:35 | 50.97554 | -1.01612 | 13855 ft | 380 kts | 34° |
| 2026-05-04 15:35 | 50.99744 | -0.99292 | 13287 ft | 376 kts | 37° |
| 2026-05-04 15:36 | 51.03371 | -0.93466 | 12183 ft | 368 kts | 49° |
| 2026-05-04 15:36 | 51.05065 | -0.90433 | 11615 ft | 364 kts | 49° |
| 2026-05-04 15:36 | 51.06741 | -0.87440 | 11072 ft | 361 kts | 49° |
| 2026-05-04 15:37 | 51.08405 | -0.84471 | 10602 ft | 356 kts | 49° |
| 2026-05-04 15:37 | 51.10019 | -0.81597 | 10473 ft | 341 kts | 49° |
| 2026-05-04 15:37 | 51.11568 | -0.78837 | 10345 ft | 328 kts | 49° |
| 2026-05-04 15:37 | 51.13056 | -0.76181 | 10218 ft | 316 kts | 49° |
| 2026-05-04 15:38 | 51.14487 | -0.73623 | 10093 ft | 305 kts | 49° |
| 2026-05-04 15:38 | 51.15876 | -0.71135 | 9875 ft | 298 kts | 49° |
| 2026-05-04 15:38 | 51.17240 | -0.68690 | 9672 ft | 293 kts | 49° |
| 2026-05-04 15:38 | 51.18589 | -0.66270 | 9374 ft | 291 kts | 49° |
| 2026-05-04 15:39 | 51.19928 | -0.63860 | 9058 ft | 290 kts | 49° |
| 2026-05-04 15:39 | 51.21245 | -0.61492 | 8745 ft | 288 kts | 48° |
| 2026-05-04 15:39 | 51.23890 | -0.56734 | 8112 ft | 285 kts | 49° |
| 2026-05-04 15:40 | 51.25195 | -0.54376 | 7802 ft | 283 kts | 49° |
| 2026-05-04 15:40 | 51.26480 | -0.52049 | 7641 ft | 275 kts | 49° |
| 2026-05-04 15:40 | 51.27729 | -0.49789 | 7502 ft | 266 kts | 49° |
| 2026-05-04 15:40 | 51.28933 | -0.47611 | 7387 ft | 258 kts | 48° |
| 2026-05-04 15:41 | 51.30102 | -0.45495 | 7251 ft | 250 kts | 48° |
| 2026-05-04 15:41 | 51.31235 | -0.43436 | 7110 ft | 246 kts | 49° |
| 2026-05-04 15:41 | 51.32362 | -0.41375 | 7040 ft | 245 kts | 50° |
| 2026-05-04 15:41 | 51.33174 | -0.38999 | 7044 ft | 246 kts | 76° |
| 2026-05-04 15:42 | 51.33219 | -0.36296 | 7048 ft | 245 kts | 103° |
| 2026-05-04 15:42 | 51.32499 | -0.33855 | 7047 ft | 245 kts | 130° |
| 2026-05-04 15:42 | 51.31195 | -0.32112 | 7050 ft | 246 kts | 147° |
| 2026-05-04 15:42 | 51.29757 | -0.30635 | 7047 ft | 246 kts | 148° |
| 2026-05-04 15:43 | 51.28300 | -0.29195 | 7047 ft | 246 kts | 151° |
| 2026-05-04 15:43 | 51.26683 | -0.28406 | 7052 ft | 245 kts | 179° |
| 2026-05-04 15:43 | 51.25026 | -0.28917 | 7048 ft | 244 kts | 206° |
| 2026-05-04 15:43 | 51.23712 | -0.30593 | 7042 ft | 241 kts | 234° |
| 2026-05-04 15:44 | 51.23062 | -0.32902 | 7038 ft | 226 kts | 260° |
| 2026-05-04 15:44 | 51.23083 | -0.35306 | 7038 ft | 210 kts | 284° |
| 2026-05-04 15:44 | 51.23652 | -0.37378 | 7043 ft | 203 kts | 307° |
| 2026-05-04 15:44 | 51.24648 | -0.38937 | 7047 ft | 202 kts | 324° |
| 2026-05-04 15:45 | 51.25818 | -0.40194 | 7050 ft | 202 kts | 327° |
| 2026-05-04 15:45 | 51.27010 | -0.41384 | 7047 ft | 202 kts | 328° |
| 2026-05-04 15:45 | 51.28208 | -0.42556 | 7043 ft | 201 kts | 328° |
| 2026-05-04 15:45 | 51.29401 | -0.43724 | 7050 ft | 202 kts | 328° |
| 2026-05-04 15:46 | 51.30605 | -0.44882 | 7048 ft | 202 kts | 334° |
| 2026-05-04 15:46 | 51.31962 | -0.45314 | 7045 ft | 201 kts | 7° |
| 2026-05-04 15:46 | 51.33236 | -0.44482 | 7047 ft | 201 kts | 42° |
| 2026-05-04 15:46 | 51.33978 | -0.42626 | 7049 ft | 202 kts | 78° |
| 2026-05-04 15:47 | 51.33932 | -0.40412 | 7045 ft | 202 kts | 111° |
| 2026-05-04 15:47 | 51.33132 | -0.38601 | 7048 ft | 202 kts | 144° |
| 2026-05-04 15:47 | 51.31952 | -0.37374 | 7051 ft | 203 kts | 148° |
| 2026-05-04 15:47 | 51.30772 | -0.36195 | 7016 ft | 202 kts | 148° |
| 2026-05-04 15:48 | 51.29577 | -0.35003 | 7017 ft | 203 kts | 148° |
| 2026-05-04 15:48 | 51.28380 | -0.33806 | 7016 ft | 203 kts | 149° |
| 2026-05-04 15:48 | 51.25735 | -0.33604 | 7015 ft | 200 kts | 215° |
| 2026-05-04 15:49 | 51.24836 | -0.35257 | 7015 ft | 200 kts | 249° |
| 2026-05-04 15:49 | 51.24682 | -0.37437 | 7016 ft | 201 kts | 283° |
| 2026-05-04 15:49 | 51.25301 | -0.39399 | 7017 ft | 201 kts | 316° |
| 2026-05-04 15:49 | 51.26488 | -0.40565 | 7029 ft | 210 kts | 345° |
| 2026-05-04 15:50 | 51.27968 | -0.40572 | 7020 ft | 220 kts | 19° |
| 2026-05-04 15:50 | 51.29205 | -0.39186 | 7014 ft | 218 kts | 55° |
| 2026-05-04 15:50 | 51.29840 | -0.37044 | 7028 ft | 214 kts | 68° |
| 2026-05-04 15:50 | 51.30398 | -0.34840 | 6916 ft | 213 kts | 68° |
| 2026-05-04 15:51 | 51.30963 | -0.32661 | 6790 ft | 211 kts | 67° |
| 2026-05-04 15:51 | 51.31519 | -0.30535 | 6662 ft | 204 kts | 67° |
| 2026-05-04 15:51 | 51.32062 | -0.28465 | 6536 ft | 201 kts | 67° |
| 2026-05-04 15:51 | 51.32598 | -0.26410 | 6409 ft | 200 kts | 67° |
| 2026-05-04 15:52 | 51.33134 | -0.24353 | 6285 ft | 200 kts | 67° |
| 2026-05-04 15:52 | 51.33666 | -0.22322 | 6162 ft | 195 kts | 67° |
| 2026-05-04 15:52 | 51.34187 | -0.20332 | 6033 ft | 193 kts | 67° |
| 2026-05-04 15:52 | 51.34707 | -0.18350 | 5926 ft | 192 kts | 67° |
| 2026-05-04 15:53 | 51.35209 | -0.16372 | 6007 ft | 194 kts | 72° |
| 2026-05-04 15:53 | 51.35564 | -0.14290 | 5900 ft | 193 kts | 75° |
| 2026-05-04 15:53 | 51.36119 | -0.12379 | 5824 ft | 191 kts | 49° |
| 2026-05-04 15:53 | 51.37191 | -0.11172 | 5703 ft | 190 kts | 18° |
| 2026-05-04 15:54 | 51.38495 | -0.10969 | 5495 ft | 189 kts | 357° |
| 2026-05-04 15:54 | 51.39805 | -0.11061 | 5247 ft | 188 kts | 358° |
| 2026-05-04 15:54 | 51.41092 | -0.11135 | 4988 ft | 187 kts | 358° |
| 2026-05-04 15:54 | 51.42413 | -0.11206 | 4660 ft | 188 kts | 359° |
| 2026-05-04 15:55 | 51.43705 | -0.11374 | 4320 ft | 191 kts | 348° |
| 2026-05-04 15:55 | 51.44962 | -0.12233 | 3863 ft | 198 kts | 326° |
| 2026-05-04 15:55 | 51.45912 | -0.13758 | 3624 ft | 194 kts | 305° |
| 2026-05-04 15:55 | 51.46446 | -0.15704 | 3412 ft | 190 kts | 283° |
| 2026-05-04 15:56 | 51.46535 | -0.17790 | 3181 ft | 187 kts | 271° |
| 2026-05-04 15:56 | 51.46532 | -0.19855 | 2934 ft | 182 kts | 271° |
| 2026-05-04 15:56 | 51.46530 | -0.21842 | 2711 ft | 176 kts | 271° |
| 2026-05-04 15:56 | 51.46528 | -0.23781 | 2480 ft | 172 kts | 272° |
| 2026-05-04 15:57 | 51.46525 | -0.25668 | 2256 ft | 166 kts | 272° |
| 2026-05-04 15:57 | 51.46524 | -0.27515 | 2032 ft | 165 kts | 272° |
| 2026-05-04 15:57 | 51.46521 | -0.29305 | 1825 ft | 157 kts | 271° |
| 2026-05-04 15:57 | 51.46518 | -0.31024 | 1617 ft | 151 kts | 272° |
| 2026-05-04 15:58 | 51.46516 | -0.32704 | 1418 ft | 151 kts | 272° |
| 2026-05-04 15:58 | 51.46513 | -0.34384 | 1221 ft | 150 kts | 272° |
| 2026-05-04 15:58 | 51.46510 | -0.36054 | 1007 ft | 150 kts | 271° |
| 2026-05-04 15:58 | 51.46504 | -0.37700 | 832 ft | 149 kts | 272° |
| 2026-05-04 15:59 | 51.46495 | -0.39349 | 632 ft | 146 kts | 271° |
| 2026-05-04 15:59 | 51.46483 | -0.40977 | 425 ft | 146 kts | 271° |
| 2026-05-04 15:59 | 51.46482 | -0.42597 | 235 ft | 146 kts | 272° |
| 2026-05-04 15:59 | 51.46493 | -0.44199 | 89 ft | 141 kts | 271° |
| 2026-05-04 16:00 | 51.46490 | -0.45533 | 86 ft | 95 kts | 270° |
| 2026-05-04 16:00 | 51.46484 | -0.46338 | 91 ft | 46 kts | 270° |
| 2026-05-04 16:00 | 51.46531 | -0.46693 | 92 ft | 21 kts | 292° |
| 2026-05-04 16:00 | 51.46583 | -0.46849 | 88 ft | 11 kts | 321° |
| 2026-05-04 16:01 | 51.46597 | -0.46858 | 87 ft | 0 kts | 344° |
| 2026-05-04 16:02 | 51.46598 | -0.46859 | 88 ft | 1 kts | 345° |
| 2026-05-04 16:02 | 51.46625 | -0.46860 | 89 ft | 6 kts | 2° |
| 2026-05-04 16:02 | 51.46657 | -0.47048 | 90 ft | 14 kts | 270° |
| 2026-05-04 16:03 | 51.46656 | -0.47223 | 89 ft | 18 kts | 270° |
| 2026-05-04 16:03 | 51.46656 | -0.47439 | 88 ft | 21 kts | 269° |
| 2026-05-04 16:03 | 51.46655 | -0.47685 | 89 ft | 22 kts | 271° |
| 2026-05-04 16:03 | 51.46654 | -0.47944 | 86 ft | 24 kts | 269° |
| 2026-05-04 16:04 | 51.46653 | -0.48190 | 86 ft | 23 kts | 270° |
| 2026-05-04 16:04 | 51.46651 | -0.48656 | 86 ft | 10 kts | 269° |
| 2026-05-04 16:04 | 51.46672 | -0.48740 | 90 ft | 10 kts | 330° |
| 2026-05-04 16:05 | 51.46744 | -0.48749 | 88 ft | 11 kts | 359° |
| 2026-05-04 16:05 | 51.46817 | -0.48749 | 86 ft | 10 kts | 0° |
| 2026-05-04 16:05 | 51.46872 | -0.48771 | 86 ft | 2 kts | 297° |
| 2026-05-04 16:06 | 51.46884 | -0.48785 | 87 ft | 3 kts | 341° |
| 2026-05-04 16:06 | 51.46927 | -0.48787 | 88 ft | 1 kts | 359° |
| 2026-05-04 16:07 | 51.46930 | -0.48787 | 86 ft | 0 kts | 359° |